Palma Sola, Brazil
Current Conditions -  °F | °C
As of 12:00 PM on Wednesday 22 Oct 2014 (Local Time) from SBCH Reporting Station
Clear Clear  
Wind Chill: 70°   Ceiling: Unl
Heat Index: 70°   Visibility: 6mi
Dew Point: 52°   Wind: 7mph
Humidity: 53%   Direction: 140°SE
Pressure: 30.15"   Gusts: NA
Location:  26.35°S, 53.28°W
Report Text: SBCH 221400Z 14006KT CAVOK 21/11 Q1021
Loading
Personal Weather Stations






























Interactive Weather Map
Tropical Storm Tracking
New forecast layout! Learn more

10-Day Weather Forecast

Advertisements
Track Severe Weather on mobile